Time;durP1;ratioP1;P1;durP2;ratioP2;P2;SDS_P1;SDS_P2;PMS_P1;PMS_P2;Temp;Humidity;BMP_temperature;BMP_pressure;BME280_temperature;BME280_humidity;BME280_pressure;Samples;Min_cycle;Max_cycle;Signal;HPM_P1;HPM_P2
2023/08/19 00:01:22;;;;;;;3.85;3.30;;;17.80;99.90;;;;;;4805752;29;20513;-62
2023/08/19 00:03:49;;;;;;;5.13;2.90;;;17.80;99.90;;;;;;4806680;29;20054;-66
2023/08/19 00:06:37;;;;;;;4.95;3.20;;;17.80;99.90;;;;;;4805703;29;20047;-62
2023/08/19 00:09:07;;;;;;;5.60;2.90;;;17.80;99.90;;;;;;4807496;29;20050;-63
2023/08/19 00:11:43;;;;;;;4.63;3.47;;;17.70;99.90;;;;;;4820933;29;20093;-66
2023/08/19 00:14:10;;;;;;;4.32;3.17;;;17.70;99.90;;;;;;4826025;29;20301;-67
2023/08/19 00:16:37;;;;;;;3.85;2.85;;;17.70;99.90;;;;;;4827074;29;20073;-62
2023/08/19 00:19:04;;;;;;;7.50;3.70;;;17.80;99.90;;;;;;4826400;29;20119;-64
2023/08/19 00:21:31;;;;;;;7.20;3.60;;;17.80;99.90;;;;;;4828019;29;20476;-66
2023/08/19 00:23:59;;;;;;;4.07;3.67;;;17.80;99.90;;;;;;4827180;29;20054;-65
2023/08/19 00:26:26;;;;;;;4.97;2.63;;;17.70;99.90;;;;;;4826240;29;20046;-68
2023/08/19 00:28:53;;;;;;;4.60;3.25;;;17.80;99.90;;;;;;4824899;29;20083;-62
2023/08/19 00:31:20;;;;;;;10.25;3.95;;;17.70;99.90;;;;;;4823239;29;20068;-69
2023/08/19 00:33:47;;;;;;;4.30;3.90;;;17.70;99.90;;;;;;4818347;29;20057;-64
2023/08/19 00:36:13;;;;;;;3.78;3.47;;;17.70;99.90;;;;;;4824521;29;20422;-62
2023/08/19 00:38:40;;;;;;;5.57;3.70;;;17.70;99.90;;;;;;4825066;29;20049;-64
2023/08/19 00:41:07;;;;;;;4.35;3.95;;;17.70;99.90;;;;;;4825123;29;20062;-66
2023/08/19 00:43:36;;;;;;;9.90;3.92;;;17.60;99.90;;;;;;4823380;29;20497;-67
2023/08/19 00:46:06;;;;;;;3.90;3.60;;;17.70;99.90;;;;;;4816955;29;20049;-63
2023/08/19 00:48:33;;;;;;;5.47;3.08;;;17.70;99.90;;;;;;4820084;29;20134;-64
2023/08/19 00:51:02;;;;;;;6.25;3.75;;;17.70;99.90;;;;;;4823462;29;20573;-63
2023/08/19 00:53:30;;;;;;;4.72;3.70;;;17.60;99.90;;;;;;4823781;29;20565;-66
2023/08/19 00:55:57;;;;;;;6.53;3.60;;;17.60;99.90;;;;;;4818982;29;20452;-64
2023/08/19 00:58:24;;;;;;;6.50;3.97;;;17.60;99.90;;;;;;4820417;29;20702;-65
2023/08/19 01:00:53;;;;;;;6.65;3.80;;;17.60;99.90;;;;;;4826950;29;20053;-68
2023/08/19 01:03:20;;;;;;;4.72;4.22;;;17.60;99.90;;;;;;4824521;29;20129;-67
2023/08/19 01:06:16;;;;;;;5.95;4.05;;;17.60;99.90;;;;;;4818783;29;20065;-69
2023/08/19 01:09:01;;;;;;;7.45;4.93;;;17.60;99.90;;;;;;4822839;29;20607;-64
2023/08/19 01:11:34;;;;;;;6.30;4.05;;;17.50;99.90;;;;;;4822985;29;20058;-67
2023/08/19 01:14:11;;;;;;;4.05;3.65;;;17.50;99.90;;;;;;4822517;29;20095;-68
2023/08/19 01:16:41;;;;;;;3.95;3.40;;;17.50;99.90;;;;;;4825138;29;20049;-61
2023/08/19 01:19:19;;;;;;;6.05;3.10;;;17.50;99.90;;;;;;4825412;29;20054;-63
2023/08/19 01:21:46;;;;;;;7.38;3.40;;;17.40;99.90;;;;;;4823442;29;20130;-65
2023/08/19 01:24:18;;;;;;;4.35;3.70;;;17.40;99.90;;;;;;4823505;29;20133;-67
2023/08/19 01:26:45;;;;;;;8.52;3.80;;;17.40;99.90;;;;;;4824750;29;20062;-62
2023/08/19 01:29:12;;;;;;;6.07;3.65;;;17.40;99.90;;;;;;4823635;29;20099;-65
2023/08/19 01:31:39;;;;;;;7.15;4.10;;;17.40;99.90;;;;;;4817072;29;20068;-62
2023/08/19 01:34:06;;;;;;;7.05;2.80;;;17.40;99.90;;;;;;4824646;29;20050;-62
2023/08/19 01:36:41;;;;;;;4.80;2.83;;;17.40;99.90;;;;;;4825519;29;20046;-63
2023/08/19 01:39:09;;;;;;;5.22;3.30;;;17.40;99.90;;;;;;4822311;29;20054;-65
2023/08/19 01:41:37;;;;;;;3.17;2.95;;;17.40;99.90;;;;;;4827629;29;20065;-61
2023/08/19 01:44:05;;;;;;;4.15;2.85;;;17.40;99.90;;;;;;4821354;29;20053;-68
2023/08/19 01:46:32;;;;;;;3.85;3.00;;;17.40;99.90;;;;;;4810322;29;20049;-65
2023/08/19 01:48:59;;;;;;;5.10;3.63;;;17.40;99.90;;;;;;4823231;29;20073;-61
2023/08/19 01:51:30;;;;;;;5.93;3.35;;;17.40;99.90;;;;;;4830359;29;20061;-65
2023/08/19 01:53:57;;;;;;;4.00;3.47;;;17.40;99.90;;;;;;4824388;29;20556;-65
2023/08/19 01:56:24;;;;;;;6.05;2.92;;;17.40;99.90;;;;;;4827759;29;20085;-62
2023/08/19 01:58:51;;;;;;;3.42;3.08;;;17.40;99.90;;;;;;4812141;29;20050;-62
2023/08/19 02:01:18;;;;;;;3.58;3.28;;;17.40;99.90;;;;;;4827243;29;20049;-66
2023/08/19 02:03:45;;;;;;;8.50;4.68;;;17.40;99.90;;;;;;4823120;29;20065;-62
2023/08/19 02:06:12;;;;;;;9.43;4.47;;;17.40;99.90;;;;;;4826569;29;20101;-63
2023/08/19 02:08:39;;;;;;;4.60;3.55;;;17.40;99.90;;;;;;4826586;29;20052;-69
2023/08/19 02:11:06;;;;;;;7.20;4.05;;;17.40;99.90;;;;;;4823179;29;20058;-61
2023/08/19 02:13:33;;;;;;;4.70;3.08;;;17.40;99.90;;;;;;4829534;29;20049;-60
2023/08/19 02:16:00;;;;;;;6.28;3.80;;;17.40;99.90;;;;;;4829819;29;20134;-65
2023/08/19 02:18:28;;;;;;;4.18;3.75;;;17.40;99.90;;;;;;4824431;29;20055;-69
2023/08/19 02:20:55;;;;;;;5.90;4.15;;;17.40;99.90;;;;;;4826604;29;20070;-62
2023/08/19 02:23:22;;;;;;;5.63;3.60;;;17.40;99.90;;;;;;4827005;29;20057;-64
2023/08/19 02:25:51;;;;;;;4.38;3.88;;;17.40;99.90;;;;;;4829020;29;20221;-66
2023/08/19 02:28:18;;;;;;;6.22;3.70;;;17.40;99.90;;;;;;4829162;29;20555;-63
2023/08/19 02:30:45;;;;;;;6.78;4.25;;;17.40;99.90;;;;;;4823805;29;20502;-66
2023/08/19 02:33:12;;;;;;;4.40;3.55;;;17.30;99.90;;;;;;4823669;29;20053;-63
2023/08/19 02:35:39;;;;;;;3.95;3.65;;;17.40;99.90;;;;;;4815166;29;20054;-68
2023/08/19 02:38:07;;;;;;;4.30;3.70;;;17.40;99.90;;;;;;4824072;29;20050;-63
2023/08/19 02:40:34;;;;;;;4.68;3.35;;;17.40;99.90;;;;;;4827276;29;20054;-63
2023/08/19 02:43:01;;;;;;;4.53;4.10;;;17.40;99.90;;;;;;4829538;29;20049;-63
2023/08/19 02:45:27;;;;;;;4.70;3.65;;;17.40;99.90;;;;;;4818782;29;20060;-65
2023/08/19 02:47:55;;;;;;;4.40;3.25;;;17.30;99.90;;;;;;4812003;29;20057;-62
2023/08/19 02:50:22;;;;;;;6.50;3.55;;;17.30;99.90;;;;;;4822620;29;20070;-63
2023/08/19 02:52:49;;;;;;;5.35;3.78;;;17.30;99.90;;;;;;4829640;29;20038;-66
2023/08/19 02:55:15;;;;;;;5.50;3.28;;;17.40;99.90;;;;;;4822869;29;20560;-67
2023/08/19 02:57:42;;;;;;;4.63;3.30;;;17.40;99.90;;;;;;4829261;29;20050;-65
2023/08/19 03:00:10;;;;;;;4.78;3.65;;;17.30;99.90;;;;;;4825572;29;20422;-63
2023/08/19 03:02:37;;;;;;;10.13;4.15;;;17.40;99.90;;;;;;4826176;29;20494;-65
2023/08/19 03:05:05;;;;;;;5.57;3.50;;;17.40;99.90;;;;;;4824878;29;20050;-61
2023/08/19 03:07:32;;;;;;;4.95;3.78;;;17.30;99.90;;;;;;4826359;29;20141;-61
2023/08/19 03:09:59;;;;;;;4.00;3.20;;;17.30;99.90;;;;;;4822222;29;20050;-64
2023/08/19 03:12:26;;;;;;;8.13;3.90;;;17.40;99.90;;;;;;4824782;29;20107;-64
2023/08/19 03:14:53;;;;;;;5.05;3.50;;;17.30;99.90;;;;;;4830911;29;20054;-66
2023/08/19 03:17:22;;;;;;;4.65;3.33;;;17.40;99.90;;;;;;4830710;29;20062;-66
2023/08/19 03:19:50;;;;;;;4.65;3.55;;;17.40;99.90;;;;;;4824348;29;20389;-65
2023/08/19 03:22:16;;;;;;;9.50;3.25;;;17.40;99.90;;;;;;4829932;29;20110;-67
2023/08/19 03:24:44;;;;;;;6.22;3.45;;;17.40;99.90;;;;;;4811744;29;20489;-62
2023/08/19 03:27:11;;;;;;;5.13;4.05;;;17.40;99.90;;;;;;4820600;29;20976;-60
2023/08/19 03:29:39;;;;;;;4.53;3.67;;;17.40;99.90;;;;;;4826560;29;20574;-63
2023/08/19 03:32:06;;;;;;;4.93;3.65;;;17.40;99.90;;;;;;4824727;29;20050;-65
2023/08/19 03:34:32;;;;;;;32.70;6.15;;;17.40;99.90;;;;;;4824164;29;20150;-68
2023/08/19 03:37:00;;;;;;;6.78;3.45;;;17.30;99.90;;;;;;4828479;29;20110;-66
2023/08/19 03:39:26;;;;;;;7.63;3.95;;;17.40;99.90;;;;;;4821642;29;20042;-63
2023/08/19 03:41:53;;;;;;;5.80;3.47;;;17.40;99.90;;;;;;4819256;29;20043;-63
2023/08/19 03:44:20;;;;;;;5.95;2.90;;;17.40;99.90;;;;;;4825948;29;20083;-62
2023/08/19 03:46:47;;;;;;;3.15;2.90;;;17.40;99.90;;;;;;4824639;29;20540;-64
2023/08/19 03:49:15;;;;;;;6.68;4.10;;;17.30;99.90;;;;;;4825534;29;20393;-63
2023/08/19 03:51:42;;;;;;;4.85;2.97;;;17.30;99.90;;;;;;4819167;29;20547;-65
2023/08/19 03:54:10;;;;;;;5.10;3.20;;;17.30;99.90;;;;;;4823413;29;20156;-65
2023/08/19 03:56:37;;;;;;;5.03;3.33;;;17.30;99.90;;;;;;4830237;29;20434;-68
2023/08/19 03:59:04;;;;;;;4.82;4.43;;;17.30;99.90;;;;;;4828902;29;20122;-66
2023/08/19 04:01:31;;;;;;;3.95;3.65;;;17.40;99.90;;;;;;4825372;29;20069;-68
2023/08/19 04:03:58;;;;;;;7.55;3.90;;;17.40;99.90;;;;;;4815183;29;20473;-64
2023/08/19 04:06:25;;;;;;;4.90;3.53;;;17.40;99.90;;;;;;4826054;29;20106;-65
2023/08/19 04:08:54;;;;;;;4.53;3.80;;;17.40;99.90;;;;;;4826810;29;20042;-67
2023/08/19 04:11:21;;;;;;;4.90;3.35;;;17.30;99.90;;;;;;4826292;29;20061;-62
2023/08/19 04:13:48;;;;;;;4.97;4.13;;;17.40;99.90;;;;;;4825655;29;20060;-65
2023/08/19 04:16:15;;;;;;;6.10;4.90;;;17.40;99.90;;;;;;4823753;29;20055;-67
2023/08/19 04:18:42;;;;;;;5.15;3.83;;;17.40;99.90;;;;;;4816659;29;20138;-62
2023/08/19 04:21:09;;;;;;;4.72;4.05;;;17.40;99.90;;;;;;4815472;29;20050;-70
2023/08/19 04:23:36;;;;;;;5.00;3.15;;;17.40;99.90;;;;;;4829807;29;20130;-67
2023/08/19 04:26:05;;;;;;;6.13;4.72;;;17.40;99.90;;;;;;4815795;29;20058;-63
2023/08/19 04:28:32;;;;;;;5.75;3.38;;;17.40;99.90;;;;;;4826680;29;20073;-64
2023/08/19 04:31:04;;;;;;;6.15;4.10;;;17.40;99.90;;;;;;4815215;29;20076;-66
2023/08/19 04:33:38;;;;;;;5.78;4.55;;;17.40;99.90;;;;;;4823569;29;20394;-66
2023/08/19 04:36:05;;;;;;;6.93;3.67;;;17.40;99.90;;;;;;4822589;29;20443;-60
2023/08/19 04:38:32;;;;;;;4.53;3.33;;;17.50;99.90;;;;;;4826908;29;20416;-65
2023/08/19 04:41:02;;;;;;;5.27;3.93;;;17.50;99.90;;;;;;4823654;29;20742;-68
2023/08/19 04:43:35;;;;;;;4.75;4.18;;;17.50;99.90;;;;;;4820893;29;21051;-65
2023/08/19 04:46:03;;;;;;;5.07;3.72;;;17.50;99.90;;;;;;4825177;29;20045;-67
2023/08/19 04:48:30;;;;;;;4.75;3.75;;;17.50;99.90;;;;;;4824543;29;20161;-67
2023/08/19 04:50:57;;;;;;;5.57;3.22;;;17.50;99.90;;;;;;4822954;29;20058;-63
2023/08/19 04:53:25;;;;;;;5.68;4.22;;;17.50;99.90;;;;;;4824143;29;20053;-67
2023/08/19 04:56:02;;;;;;;4.43;3.95;;;17.60;99.90;;;;;;4810186;29;20065;-67
2023/08/19 04:58:30;;;;;;;8.18;4.03;;;17.60;99.90;;;;;;4811275;29;20065;-64
2023/08/19 05:00:58;;;;;;;4.07;3.70;;;17.60;99.90;;;;;;4825330;29;20111;-66
2023/08/19 05:03:25;;;;;;;5.40;3.95;;;17.60;99.90;;;;;;4822964;29;20424;-63
2023/08/19 05:05:53;;;;;;;5.70;3.92;;;17.60;99.90;;;;;;4819471;29;20054;-65
2023/08/19 05:08:24;;;;;;;4.18;3.78;;;17.70;99.90;;;;;;4808788;29;20065;-61
2023/08/19 05:10:51;;;;;;;4.40;4.00;;;17.70;99.90;;;;;;4823711;29;20061;-64
2023/08/19 05:13:18;;;;;;;5.78;4.07;;;17.70;99.90;;;;;;4806955;29;20174;-62
2023/08/19 05:15:46;;;;;;;4.20;3.80;;;17.70;99.90;;;;;;4822368;29;20072;-62
2023/08/19 05:18:13;;;;;;;6.18;3.55;;;17.70;99.90;;;;;;4812333;29;20076;-70
2023/08/19 05:20:40;;;;;;;7.18;4.28;;;17.80;99.90;;;;;;4820621;29;20439;-62
2023/08/19 05:23:08;;;;;;;4.60;3.60;;;17.80;99.90;;;;;;4826469;29;20064;-68
2023/08/19 05:25:36;;;;;;;4.00;3.53;;;17.80;99.90;;;;;;4824521;29;20057;-63
2023/08/19 05:28:03;;;;;;;3.35;3.10;;;17.80;99.90;;;;;;4827092;29;20050;-64
2023/08/19 05:30:30;;;;;;;5.03;4.63;;;17.80;99.90;;;;;;4823519;29;20046;-70
2023/08/19 05:32:58;;;;;;;4.57;4.00;;;17.90;99.90;;;;;;4823396;29;20074;-66
2023/08/19 05:35:25;;;;;;;3.63;3.30;;;17.90;99.90;;;;;;4826337;29;20133;-63
2023/08/19 05:37:52;;;;;;;5.93;3.45;;;17.90;99.90;;;;;;4825939;29;20082;-71
2023/08/19 05:40:19;;;;;;;6.55;3.38;;;18.00;99.90;;;;;;4825014;29;20110;-60
2023/08/19 05:42:47;;;;;;;4.75;3.50;;;18.00;99.90;;;;;;4826200;29;20058;-63
2023/08/19 05:45:15;;;;;;;4.72;4.20;;;18.00;99.90;;;;;;4824652;29;20050;-61
2023/08/19 05:47:42;;;;;;;5.00;3.72;;;18.00;99.90;;;;;;4822995;29;20054;-65
2023/08/19 05:50:09;;;;;;;11.27;4.85;;;18.00;99.90;;;;;;4828174;29;20050;-66
2023/08/19 05:52:36;;;;;;;4.60;3.58;;;18.00;99.90;;;;;;4826072;29;20118;-67
2023/08/19 05:55:03;;;;;;;4.03;3.38;;;18.10;99.90;;;;;;4825685;29;20058;-66
2023/08/19 05:57:30;;;;;;;6.30;4.15;;;18.10;99.90;;;;;;4825001;29;20050;-66
2023/08/19 05:59:58;;;;;;;7.10;4.75;;;18.10;99.90;;;;;;4824235;29;20124;-64
2023/08/19 06:02:24;;;;;;;4.65;3.53;;;18.10;99.90;;;;;;4821384;29;20081;-66
2023/08/19 06:04:51;;;;;;;6.85;4.43;;;18.20;99.90;;;;;;4826493;29;20496;-65
2023/08/19 06:07:25;;;;;;;4.93;3.42;;;18.20;99.90;;;;;;4826547;29;20047;-65
2023/08/19 06:09:52;;;;;;;5.53;4.35;;;18.40;99.90;;;;;;4825883;29;20128;-67
2023/08/19 06:12:19;;;;;;;5.88;4.78;;;18.40;99.90;;;;;;4822556;29;20065;-63
2023/08/19 06:14:46;;;;;;;5.38;3.58;;;18.50;99.90;;;;;;4825637;29;20042;-65
2023/08/19 06:17:13;;;;;;;3.90;3.58;;;18.50;99.90;;;;;;4826702;29;20081;-61
2023/08/19 06:19:41;;;;;;;5.38;3.85;;;18.60;99.90;;;;;;4826402;29;20138;-64
2023/08/19 06:22:08;;;;;;;5.20;4.35;;;18.70;99.90;;;;;;4826530;29;20057;-68
2023/08/19 06:24:35;;;;;;;8.63;4.45;;;18.70;99.90;;;;;;4825519;29;20056;-63
2023/08/19 06:27:02;;;;;;;5.40;4.90;;;18.70;99.90;;;;;;4823479;29;20054;-70
2023/08/19 06:29:29;;;;;;;5.88;4.22;;;18.80;99.90;;;;;;4822856;29;20070;-69
2023/08/19 06:31:56;;;;;;;5.40;4.07;;;18.80;99.90;;;;;;4825408;29;20046;-64
2023/08/19 06:34:24;;;;;;;4.63;3.45;;;18.80;99.90;;;;;;4824839;29;20069;-64
2023/08/19 06:36:52;;;;;;;4.13;3.55;;;18.90;99.90;;;;;;4827972;29;20098;-62
2023/08/19 06:39:28;;;;;;;10.30;4.80;;;19.00;99.90;;;;;;4830499;29;20327;-65
2023/08/19 06:42:05;;;;;;;6.47;3.88;;;19.00;99.90;;;;;;4829040;29;20121;-65
2023/08/19 06:44:33;;;;;;;4.38;3.70;;;19.10;99.90;;;;;;4824161;29;20057;-68
2023/08/19 06:47:02;;;;;;;5.20;3.58;;;19.20;99.90;;;;;;4827021;29;20050;-61
2023/08/19 06:49:30;;;;;;;4.20;3.80;;;19.30;99.90;;;;;;4827454;29;20564;-63
2023/08/19 06:51:57;;;;;;;5.25;3.83;;;19.30;99.90;;;;;;4830874;29;20581;-66
2023/08/19 06:54:24;;;;;;;3.70;3.40;;;19.30;99.90;;;;;;4828103;29;20873;-64
2023/08/19 06:56:57;;;;;;;4.30;3.70;;;19.40;99.90;;;;;;4826391;29;20474;-62
2023/08/19 06:59:36;;;;;;;5.38;4.13;;;19.40;99.90;;;;;;4826403;29;20500;-65
2023/08/19 07:02:05;;;;;;;5.50;4.53;;;19.50;99.90;;;;;;4824002;29;20066;-70
2023/08/19 07:04:33;;;;;;;6.60;4.32;;;19.60;99.90;;;;;;4828231;29;20292;-64
2023/08/19 07:07:03;;;;;;;4.18;3.78;;;19.60;99.90;;;;;;4825709;29;20062;-64
2023/08/19 07:09:31;;;;;;;6.30;3.10;;;19.60;99.90;;;;;;4827710;29;20359;-62
2023/08/19 07:11:58;;;;;;;4.18;3.78;;;19.70;99.90;;;;;;4826968;29;20082;-62
2023/08/19 07:14:26;;;;;;;4.55;3.40;;;19.70;99.90;;;;;;4826509;29;20046;-65
2023/08/19 07:16:58;;;;;;;4.55;3.35;;;19.70;99.90;;;;;;4823304;29;20048;-62
2023/08/19 07:19:36;;;;;;;3.80;3.38;;;19.70;99.90;;;;;;4827337;29;20050;-66
2023/08/19 07:22:03;;;;;;;3.55;3.33;;;19.80;99.90;;;;;;4827461;29;20106;-72
2023/08/19 07:24:31;;;;;;;3.17;2.97;;;19.90;99.90;;;;;;4826705;29;20053;-70
2023/08/19 07:27:06;;;;;;;3.65;3.33;;;20.00;99.90;;;;;;4826292;29;20607;-66
2023/08/19 07:29:35;;;;;;;3.67;3.38;;;20.10;99.90;;;;;;4828253;29;20057;-64
2023/08/19 07:32:02;;;;;;;3.05;2.75;;;20.10;99.90;;;;;;4827660;29;20134;-68
2023/08/19 07:34:29;;;;;;;5.00;3.65;;;20.20;99.90;;;;;;4829129;29;20074;-65
2023/08/19 07:36:56;;;;;;;3.90;3.47;;;20.20;99.90;;;;;;4826566;29;20046;-66
2023/08/19 07:39:25;;;;;;;4.20;3.45;;;20.20;99.90;;;;;;4825897;29;20045;-65
2023/08/19 07:41:52;;;;;;;10.35;4.18;;;20.30;99.90;;;;;;4823425;29;20485;-62
2023/08/19 07:44:19;;;;;;;4.28;3.80;;;20.40;99.90;;;;;;4825500;29;20555;-70
2023/08/19 07:46:46;;;;;;;3.50;3.17;;;20.50;99.90;;;;;;4825964;29;20451;-63
2023/08/19 07:49:13;;;;;;;3.55;3.22;;;20.50;99.90;;;;;;4826126;29;20054;-66
2023/08/19 07:51:40;;;;;;;4.35;3.95;;;20.60;99.90;;;;;;4824877;29;20038;-65
2023/08/19 07:54:07;;;;;;;2.80;2.60;;;20.70;99.90;;;;;;4828640;29;20450;-67
2023/08/19 07:56:34;;;;;;;3.58;3.28;;;20.70;99.90;;;;;;4824445;29;20057;-63
2023/08/19 07:59:00;;;;;;;10.88;3.40;;;20.80;99.90;;;;;;4823960;29;20050;-66
2023/08/19 08:01:27;;;;;;;3.90;3.53;;;20.80;99.90;;;;;;4826811;29;20113;-63
2023/08/19 08:03:54;;;;;;;5.68;4.05;;;20.80;99.90;;;;;;4827152;29;20479;-65
2023/08/19 08:06:21;;;;;;;4.40;3.28;;;20.90;99.90;;;;;;4822831;29;20169;-63
2023/08/19 08:08:48;;;;;;;6.68;2.83;;;20.90;99.90;;;;;;4826647;29;20109;-64
2023/08/19 08:11:16;;;;;;;6.95;3.60;;;21.00;99.90;;;;;;4824846;29;20493;-66
2023/08/19 08:13:43;;;;;;;3.80;3.10;;;21.00;99.90;;;;;;4823940;29;20050;-69
2023/08/19 08:16:10;;;;;;;3.28;2.95;;;21.00;99.90;;;;;;4829801;29;20135;-64
2023/08/19 08:18:37;;;;;;;4.47;4.05;;;21.00;99.90;;;;;;4825657;29;20054;-68
2023/08/19 08:21:04;;;;;;;4.78;4.00;;;21.20;99.90;;;;;;4827642;29;20126;-65
2023/08/19 08:23:30;;;;;;;6.03;3.72;;;21.30;99.90;;;;;;4820810;29;20828;-65
2023/08/19 08:25:57;;;;;;;3.67;3.30;;;21.40;99.90;;;;;;4827046;29;20058;-62
2023/08/19 08:28:24;;;;;;;6.18;3.97;;;21.60;99.90;;;;;;4828613;29;20061;-64
2023/08/19 08:30:51;;;;;;;4.35;3.95;;;21.70;99.90;;;;;;4823731;29;20505;-64
2023/08/19 08:33:20;;;;;;;7.50;3.78;;;21.70;99.90;;;;;;4821764;29;20129;-65
2023/08/19 08:35:47;;;;;;;4.40;3.47;;;21.80;99.90;;;;;;4826377;29;20065;-64
2023/08/19 08:38:14;;;;;;;9.40;5.90;;;21.90;99.90;;;;;;4823847;29;20073;-65
2023/08/19 08:40:41;;;;;;;4.57;4.10;;;22.00;99.90;;;;;;4826108;29;20189;-66
2023/08/19 08:43:08;;;;;;;5.20;3.90;;;22.00;99.90;;;;;;4824184;29;20077;-67
2023/08/19 08:45:36;;;;;;;4.57;3.80;;;22.10;99.90;;;;;;4826725;29;20049;-68
2023/08/19 08:48:04;;;;;;;4.68;3.63;;;22.20;99.90;;;;;;4823667;29;20050;-64
2023/08/19 08:50:31;;;;;;;6.03;3.83;;;22.30;99.90;;;;;;4827090;29;20541;-65
2023/08/19 08:52:58;;;;;;;8.43;3.97;;;22.40;99.90;;;;;;4829215;29;20140;-65
2023/08/19 08:55:26;;;;;;;3.67;3.38;;;22.50;99.90;;;;;;4824705;29;20056;-68
2023/08/19 08:57:52;;;;;;;8.27;4.25;;;22.60;99.90;;;;;;4828640;29;20054;-66
2023/08/19 09:00:19;;;;;;;4.35;3.97;;;22.60;99.90;;;;;;4824527;29;20066;-61
2023/08/19 09:02:48;;;;;;;4.88;4.53;;;22.60;99.90;;;;;;4827193;29;20081;-67
2023/08/19 09:05:17;;;;;;;4.93;4.15;;;22.60;99.90;;;;;;4826088;29;20042;-62
2023/08/19 09:07:49;;;;;;;4.63;4.22;;;22.60;99.90;;;;;;4825754;29;20062;-63
2023/08/19 09:10:18;;;;;;;5.80;3.60;;;22.70;99.90;;;;;;4824043;29;20049;-67
2023/08/19 09:12:50;;;;;;;4.53;4.22;;;22.80;99.90;;;;;;4820963;29;20481;-62
2023/08/19 09:15:18;;;;;;;4.80;3.60;;;22.70;99.90;;;;;;4820148;29;20137;-66
2023/08/19 09:17:45;;;;;;;8.38;3.55;;;22.70;99.90;;;;;;4826381;29;20050;-69
2023/08/19 09:20:18;;;;;;;6.03;3.90;;;22.50;99.90;;;;;;4823231;29;20501;-68
2023/08/19 09:22:45;;;;;;;3.33;3.13;;;22.40;99.90;;;;;;4822970;29;20057;-62
2023/08/19 09:25:15;;;;;;;5.38;3.17;;;22.30;99.90;;;;;;4826771;29;20133;-64
2023/08/19 09:27:44;;;;;;;5.55;3.45;;;22.30;99.90;;;;;;4824264;29;20046;-70
2023/08/19 09:30:16;;;;;;;4.15;3.78;;;22.20;99.90;;;;;;4820182;29;20474;-62
2023/08/19 09:32:45;;;;;;;4.65;4.18;;;22.30;99.90;;;;;;4824396;29;20376;-65
2023/08/19 09:35:12;;;;;;;4.38;3.97;;;22.30;99.90;;;;;;4824713;29;20168;-61
2023/08/19 09:37:41;;;;;;;5.65;4.22;;;22.40;99.90;;;;;;4828550;29;20049;-63
2023/08/19 09:40:15;;;;;;;5.35;4.25;;;22.40;99.90;;;;;;4830065;29;20140;-69
2023/08/19 09:42:47;;;;;;;3.90;3.60;;;22.40;99.90;;;;;;4826176;29;20053;-64
2023/08/19 09:45:22;;;;;;;4.55;4.15;;;22.30;99.90;;;;;;4822915;29;20392;-65
2023/08/19 09:47:51;;;;;;;5.38;4.22;;;22.40;99.90;;;;;;4826620;29;20123;-61
2023/08/19 09:50:20;;;;;;;6.28;3.58;;;22.50;99.90;;;;;;4825320;29;20082;-66
2023/08/19 09:52:58;;;;;;;6.53;4.35;;;22.60;99.90;;;;;;4824474;29;20133;-64
2023/08/19 09:55:30;;;;;;;5.53;5.13;;;22.70;99.90;;;;;;4823092;29;20054;-64
2023/08/19 09:57:58;;;;;;;4.90;4.03;;;22.70;99.90;;;;;;4826121;29;20077;-66
2023/08/19 10:00:25;;;;;;;4.05;3.75;;;22.80;99.90;;;;;;4821620;29;20054;-65
2023/08/19 10:02:52;;;;;;;4.38;3.72;;;22.90;99.90;;;;;;4823182;29;20110;-70
2023/08/19 10:05:19;;;;;;;5.78;4.30;;;23.10;99.90;;;;;;4824204;29;20046;-65
2023/08/19 10:07:53;;;;;;;5.75;5.28;;;23.20;99.90;;;;;;4826579;29;20114;-65
2023/08/19 10:10:21;;;;;;;4.72;3.42;;;23.40;99.90;;;;;;4834149;29;20054;-61
2023/08/19 10:12:52;;;;;;;5.22;4.82;;;23.60;99.90;;;;;;4827443;29;20627;-61
2023/08/19 10:15:21;;;;;;;4.30;3.72;;;23.80;99.90;;;;;;4827348;29;20443;-63
2023/08/19 10:17:52;;;;;;;4.32;3.80;;;23.90;99.90;;;;;;4830516;29;20062;-64
2023/08/19 10:20:23;;;;;;;4.75;4.35;;;23.80;99.90;;;;;;4828004;29;20118;-69
2023/08/19 10:22:53;;;;;;;9.40;4.53;;;23.80;99.90;;;;;;4827728;29;20054;-64
2023/08/19 10:25:21;;;;;;;;;;;23.60;99.90;;;;;;4830000;29;20154;-68
2023/08/19 10:27:47;;;;;;;3.25;2.90;;;23.30;99.90;;;;;;4825264;29;20390;-66
2023/08/19 10:30:23;;;;;;;5.35;4.80;;;23.40;99.90;;;;;;4830008;29;20128;-66
2023/08/19 10:32:51;;;;;;;5.80;4.28;;;23.20;99.90;;;;;;4825448;29;20050;-64
2023/08/19 10:35:18;;;;;;;4.85;4.07;;;23.10;99.90;;;;;;4825382;29;20049;-63
2023/08/19 10:37:51;;;;;;;6.38;4.00;;;23.00;99.90;;;;;;4826465;29;20369;-63
2023/08/19 10:40:24;;;;;;;6.03;4.68;;;22.80;99.90;;;;;;4822988;29;20110;-64
2023/08/19 10:42:58;;;;;;;4.72;4.35;;;22.70;99.90;;;;;;4827101;29;20154;-67
2023/08/19 10:45:33;;;;;;;4.70;4.30;;;22.50;99.90;;;;;;4827237;29;20242;-65
2023/08/19 10:48:00;;;;;;;7.32;4.30;;;22.40;99.90;;;;;;4825569;29;20050;-68
2023/08/19 10:50:34;;;;;;;11.95;5.65;;;22.30;99.90;;;;;;4826118;29;20057;-65
2023/08/19 10:53:07;;;;;;;6.53;4.78;;;22.40;99.90;;;;;;4825994;29;20057;-65
2023/08/19 10:55:53;;;;;;;6.45;5.57;;;22.30;99.90;;;;;;4827316;29;20053;-69
2023/08/19 10:58:22;;;;;;;5.22;4.72;;;22.50;99.90;;;;;;4828593;29;20065;-62
2023/08/19 11:00:49;;;;;;;5.50;4.28;;;22.50;99.90;;;;;;4829049;29;20461;-63
2023/08/19 11:03:16;;;;;;;5.38;4.88;;;22.60;99.90;;;;;;4826560;29;20160;-65
2023/08/19 11:05:50;;;;;;;5.43;5.00;;;22.50;99.90;;;;;;4826134;29;20053;-61
2023/08/19 11:08:18;;;;;;;6.95;5.93;;;22.30;99.90;;;;;;4821812;29;20069;-62
2023/08/19 11:10:46;;;;;;;5.90;4.43;;;22.20;99.90;;;;;;4826666;29;20103;-68
2023/08/19 11:13:13;;;;;;;7.82;5.30;;;22.20;99.90;;;;;;4829493;29;20050;-68
2023/08/19 11:15:40;;;;;;;5.88;5.13;;;22.20;99.90;;;;;;4825789;29;20720;-63
2023/08/19 11:18:07;;;;;;;5.25;4.85;;;22.20;99.90;;;;;;4823447;29;20058;-60
2023/08/19 11:20:36;;;;;;;6.80;4.93;;;22.30;99.90;;;;;;4829070;29;20046;-66
2023/08/19 11:23:03;;;;;;;5.70;4.68;;;22.30;99.90;;;;;;4824175;29;20447;-66
2023/08/19 11:25:35;;;;;;;6.13;5.53;;;22.50;99.90;;;;;;4827328;29;20757;-65
2023/08/19 11:28:02;;;;;;;7.80;6.00;;;22.50;99.90;;;;;;4828063;29;20098;-65
2023/08/19 11:30:30;;;;;;;6.13;5.53;;;22.60;99.90;;;;;;4828485;29;20046;-61
2023/08/19 11:32:57;;;;;;;6.03;5.45;;;22.60;99.90;;;;;;4829435;29;20078;-61
2023/08/19 11:35:28;;;;;;;5.03;4.63;;;22.50;99.90;;;;;;4824199;29;20558;-68
2023/08/19 11:37:55;;;;;;;6.60;5.05;;;22.50;99.90;;;;;;4827079;29;20050;-69
2023/08/19 11:40:31;;;;;;;5.72;4.75;;;22.60;99.90;;;;;;4827625;29;20050;-68
2023/08/19 11:43:09;;;;;;;5.07;4.63;;;22.50;99.90;;;;;;4824169;29;20562;-63
2023/08/19 11:45:37;;;;;;;5.63;5.00;;;22.40;99.90;;;;;;4825533;29;20045;-67
2023/08/19 11:48:06;;;;;;;6.55;5.65;;;22.30;99.90;;;;;;4829364;29;20074;-64
2023/08/19 11:50:36;;;;;;;10.43;5.55;;;22.10;99.90;;;;;;4826819;29;21202;-61
2023/08/19 11:53:03;;;;;;;;;;;22.00;99.90;;;;;;4827232;29;20050;-62
2023/08/19 11:55:30;;;;;;;6.20;5.25;;;21.80;99.90;;;;;;4824708;29;19935;-67
2023/08/19 11:57:57;;;;;;;7.60;7.00;;;21.70;99.90;;;;;;4832043;29;20110;-68
2023/08/19 12:00:26;;;;;;;4.75;4.35;;;21.70;99.90;;;;;;4825553;29;20561;-65
2023/08/19 12:02:53;;;;;;;5.60;4.82;;;21.70;99.90;;;;;;4827036;29;20060;-64
2023/08/19 12:05:26;;;;;;;8.80;5.13;;;21.70;99.90;;;;;;4827796;29;20063;-61
2023/08/19 12:07:52;;;;;;;6.13;5.53;;;21.60;99.90;;;;;;4826404;29;20446;-69
2023/08/19 12:10:19;;;;;;;6.95;6.25;;;21.60;99.90;;;;;;4822365;29;20050;-65
2023/08/19 12:12:59;;;;;;;5.50;4.85;;;21.70;99.90;;;;;;4828265;29;20509;-69
2023/08/19 12:15:27;;;;;;;6.15;5.55;;;21.70;99.90;;;;;;4821334;29;20575;-66
2023/08/19 12:17:53;;;;;;;6.38;5.80;;;21.60;99.90;;;;;;4824693;29;20050;-65
2023/08/19 12:20:21;;;;;;;5.18;4.72;;;21.40;99.90;;;;;;4823535;29;20050;-66
2023/08/19 12:22:48;;;;;;;6.32;5.35;;;21.30;99.90;;;;;;4823272;29;20042;-67
2023/08/19 12:25:15;;;;;;;7.18;6.57;;;21.30;99.90;;;;;;4824839;29;20149;-64
2023/08/19 12:27:43;;;;;;;7.43;6.72;;;21.20;99.90;;;;;;4825814;29;20060;-65
2023/08/19 12:30:10;;;;;;;7.43;6.68;;;21.20;99.90;;;;;;4805177;29;20084;-68
2023/08/19 12:32:37;;;;;;;10.43;6.70;;;21.40;99.90;;;;;;4824427;29;20050;-65
2023/08/19 12:35:05;;;;;;;7.25;6.55;;;21.50;99.90;;;;;;4827693;29;20053;-69
2023/08/19 12:37:32;;;;;;;6.60;5.78;;;21.60;99.90;;;;;;4826943;29;20041;-64
2023/08/19 12:39:59;;;;;;;7.75;6.00;;;21.50;99.90;;;;;;4825810;29;20045;-65
2023/08/19 12:42:26;;;;;;;6.15;5.65;;;21.40;99.90;;;;;;4826366;29;20046;-68
2023/08/19 12:45:12;;;;;;;6.93;6.32;;;21.30;99.90;;;;;;4826858;29;20041;-63
2023/08/19 12:47:40;;;;;;;7.53;6.82;;;21.20;99.90;;;;;;4823173;29;20049;-62
2023/08/19 12:50:08;;;;;;;8.80;7.78;;;21.30;99.90;;;;;;4828134;29;20050;-68
2023/08/19 12:52:35;;;;;;;7.45;6.28;;;21.30;99.90;;;;;;4823883;29;20098;-64
2023/08/19 12:55:05;;;;;;;7.50;6.80;;;21.30;99.90;;;;;;4822791;29;20052;-68